Time;durP1;ratioP1;P1;durP2;ratioP2;P2;SDS_P1;SDS_P2;PMS_P1;PMS_P2;Temp;Humidity;BMP_temperature;BMP_pressure;BME280_temperature;BME280_humidity;BME280_pressure;Samples;Min_cycle;Max_cycle;Signal;HPM_P1;HPM_P2
2023/07/04 00:01:17;;;;;;;;;;;;;;;24.24;36.32;100937.28;5055577;28;19921;-78
2023/07/04 00:03:44;;;;;;;;;;;;;;;24.22;36.36;100939.53;5055078;28;20164;-78
2023/07/04 00:06:11;;;;;;;;;;;;;;;24.18;36.55;100933.94;5054433;28;19916;-78
2023/07/04 00:08:37;;;;;;;;;;;;;;;24.16;36.53;100932.69;5055244;28;19921;-78
2023/07/04 00:11:03;;;;;;;;;;;;;;;24.15;36.44;100929.13;5056439;28;19927;-78
2023/07/04 00:13:29;;;;;;;;;;;;;;;24.12;36.57;100921.59;5056100;28;19999;-78
2023/07/04 00:15:55;;;;;;;;;;;;;;;24.12;36.64;100918.88;5050974;28;19921;-78
2023/07/04 00:18:22;;;;;;;;;;;;;;;24.14;36.36;100921.25;5056616;28;19925;-78
2023/07/04 00:20:54;;;;;;;;;;;;;;;24.13;36.29;100917.72;5052516;28;19976;-78
2023/07/04 00:23:20;;;;;;;;;;;;;;;24.15;36.37;100922.88;5053078;28;19920;-78
2023/07/04 00:25:45;;;;;;;;;;;;;;;24.11;36.35;100920.81;5053645;28;20351;-78
2023/07/04 00:28:11;;;;;;;;;;;;;;;24.11;36.37;100920.00;5056177;28;19917;-78
2023/07/04 00:30:36;;;;;;;;;;;;;;;24.10;36.35;100921.13;5056334;28;19946;-78
2023/07/04 00:33:01;;;;;;;;;;;;;;;24.08;36.37;100920.69;5057160;28;19920;-78
2023/07/04 00:35:28;;;;;;;;;;;;;;;24.03;36.52;100916.19;5054474;28;20312;-78
2023/07/04 00:37:55;;;;;;;;;;;;;;;24.03;36.56;100912.66;5053143;28;19916;-78
2023/07/04 00:40:21;;;;;;;;;;;;;;;24.01;36.54;100914.91;5054122;28;20090;-78
2023/07/04 00:42:46;;;;;;;;;;;;;;;24.01;36.37;100921.19;5058046;28;20003;-78
2023/07/04 00:45:19;;;;;;;;;;;;;;;24.02;36.29;100922.00;5055523;28;19916;-78
2023/07/04 00:47:53;;;;;;;;;;;;;;;24.02;36.31;100908.31;5058336;28;20387;-78
2023/07/04 00:50:19;;;;;;;;;;;;;;;24.04;36.23;100908.78;5052680;28;19924;-78
2023/07/04 00:52:45;;;;;;;;;;;;;;;24.05;36.29;100911.16;5058245;28;19931;-78
2023/07/04 00:55:11;;;;;;;;;;;;;;;24.06;36.25;100901.84;5060026;28;20015;-78
2023/07/04 00:57:37;;;;;;;;;;;;;;;24.06;36.15;100914.75;5062201;28;20041;-78
2023/07/04 01:00:18;;;;;;;;;;;;;;;24.00;36.27;100903.16;5055980;28;19979;-78
2023/07/04 01:02:45;;;;;;;;;;;;;;;23.95;36.39;100911.59;5060511;28;19917;-78
2023/07/04 01:05:12;;;;;;;;;;;;;;;23.91;36.42;100915.34;5057595;28;20388;-78
2023/07/04 01:07:41;;;;;;;;;;;;;;;23.85;36.55;100922.91;5059537;28;19947;-78
2023/07/04 01:10:23;;;;;;;;;;;;;;;23.80;36.54;100914.91;5056499;28;19921;-78
2023/07/04 01:12:49;;;;;;;;;;;;;;;23.76;36.82;100919.47;5057721;28;19945;-78
2023/07/04 01:15:15;;;;;;;;;;;;;;;23.75;36.64;100913.19;5056430;28;19925;-78
2023/07/04 01:17:43;;;;;;;;;;;;;;;23.77;36.79;100908.19;5063867;28;20004;-78
2023/07/04 01:20:11;;;;;;;;;;;;;;;23.78;36.77;100898.03;5057463;28;19928;-78
2023/07/04 01:22:39;;;;;;;;;;;;;;;23.80;36.80;100891.09;5061159;28;19924;-78
2023/07/04 01:25:14;;;;;;;;;;;;;;;23.80;36.80;100887.56;5056746;28;19921;-78
2023/07/04 01:27:41;;;;;;;;;;;;;;;23.79;36.77;100889.50;5058463;28;19944;-78
2023/07/04 01:30:07;;;;;;;;;;;;;;;23.72;36.77;100896.66;5059205;28;19916;-78
2023/07/04 01:32:34;;;;;;;;;;;;;;;23.63;36.78;100896.69;5063195;28;19930;-78
2023/07/04 01:35:00;;;;;;;;;;;;;;;23.58;36.71;100894.16;5061726;28;20050;-78
2023/07/04 01:37:29;;;;;;;;;;;;;;;23.63;36.85;100887.69;5057410;28;19963;-78
2023/07/04 01:39:58;;;;;;;;;;;;;;;23.66;36.85;100887.03;5051160;28;19936;-78
2023/07/04 01:42:31;;;;;;;;;;;;;;;23.69;36.58;100880.88;5056570;28;19925;-78
2023/07/04 01:45:01;;;;;;;;;;;;;;;23.72;36.66;100882.97;5058926;28;19920;-78
2023/07/04 01:47:27;;;;;;;;;;;;;;;23.74;36.70;100880.69;5059614;28;20003;-78
2023/07/04 01:49:53;;;;;;;;;;;;;;;23.72;36.60;100881.03;5058994;28;19916;-78
2023/07/04 01:52:18;;;;;;;;;;;;;;;23.70;36.72;100879.78;5051912;28;19921;-78
2023/07/04 01:54:43;;;;;;;;;;;;;;;23.67;36.70;100886.69;5062259;28;20381;-78
2023/07/04 01:57:10;;;;;;;;;;;;;;;23.67;36.66;100872.22;5057027;28;20377;-78
2023/07/04 01:59:36;;;;;;;;;;;;;;;23.67;36.65;100872.22;5060109;28;19925;-78
2023/07/04 02:02:02;;;;;;;;;;;;;;;23.66;36.75;100865.13;5059306;28;19924;-78
2023/07/04 02:04:27;;;;;;;;;;;;;;;23.65;36.92;100867.06;5053719;28;20198;-78
2023/07/04 02:06:52;;;;;;;;;;;;;;;23.64;36.99;100865.47;5053575;28;19921;-78
2023/07/04 02:09:17;;;;;;;;;;;;;;;23.66;36.88;100857.72;5052066;28;19921;-78
2023/07/04 02:11:43;;;;;;;;;;;;;;;23.67;36.96;100855.78;5047663;28;20182;-78
2023/07/04 02:14:08;;;;;;;;;;;;;;;23.66;37.08;100854.19;5055168;28;20008;-78
2023/07/04 02:16:33;;;;;;;;;;;;;;;23.64;37.13;100846.31;5057973;28;19924;-78
2023/07/04 02:18:59;;;;;;;;;;;;;;;23.61;37.11;100847.00;5053864;28;20282;-78
2023/07/04 02:21:26;;;;;;;;;;;;;;;23.56;37.44;100844.44;5058573;28;20050;-78
2023/07/04 02:23:51;;;;;;;;;;;;;;;23.56;37.56;100854.56;5054329;28;19927;-78
2023/07/04 02:26:17;;;;;;;;;;;;;;;23.48;37.72;100854.28;5054527;28;19967;-78
2023/07/04 02:28:42;;;;;;;;;;;;;;;23.42;37.76;100852.09;5056758;28;19923;-78
2023/07/04 02:31:07;;;;;;;;;;;;;;;23.36;37.80;100839.75;5055214;28;19928;-78
2023/07/04 02:33:34;;;;;;;;;;;;;;;23.34;37.94;100844.72;5055543;28;19917;-78
2023/07/04 02:35:59;;;;;;;;;;;;;;;23.33;37.75;100845.84;5058649;28;20083;-78
2023/07/04 02:38:24;;;;;;;;;;;;;;;23.29;37.97;100834.78;5058461;28;19924;-78
2023/07/04 02:40:51;;;;;;;;;;;;;;;23.27;37.68;100833.53;5054634;28;19920;-78
2023/07/04 02:43:17;;;;;;;;;;;;;;;23.25;37.82;100831.13;5051932;28;20472;-78
2023/07/04 02:45:42;;;;;;;;;;;;;;;23.25;37.77;100838.53;5055696;28;19920;-78
2023/07/04 02:48:08;;;;;;;;;;;;;;;23.19;37.80;100837.94;5057693;28;20372;-78
2023/07/04 02:50:33;;;;;;;;;;;;;;;23.16;37.90;100827.63;5048076;28;20073;-78
2023/07/04 02:52:59;;;;;;;;;;;;;;;23.14;37.79;100827.16;5055407;28;19916;-78
2023/07/04 02:55:24;;;;;;;;;;;;;;;23.08;38.07;100833.97;5051375;28;19931;-78
2023/07/04 02:57:49;;;;;;;;;;;;;;;22.99;37.99;100820.34;5056721;28;19916;-78
2023/07/04 03:00:15;;;;;;;;;;;;;;;22.96;37.98;100821.00;5055210;28;20007;-78
2023/07/04 03:02:40;;;;;;;;;;;;;;;22.94;37.58;100823.25;5057645;28;19916;-78
2023/07/04 03:05:06;;;;;;;;;;;;;;;22.88;37.54;100814.47;5057658;28;19976;-78
2023/07/04 03:07:31;;;;;;;;;;;;;;;22.80;37.65;100828.09;5054215;28;20282;-78
2023/07/04 03:09:57;;;;;;;;;;;;;;;22.70;37.97;100825.75;5051815;28;19947;-77
2023/07/04 03:12:22;;;;;;;;;;;;;;;22.66;37.74;100831.06;5056031;28;19924;-76
2023/07/04 03:14:48;;;;;;;;;;;;;;;22.60;38.10;100844.09;5055919;28;19917;-77
2023/07/04 03:17:13;;;;;;;;;;;;;;;22.56;37.65;100837.69;5057233;28;19988;-77
2023/07/04 03:19:38;;;;;;;;;;;;;;;22.42;38.03;100839.81;5054282;28;19925;-76
2023/07/04 03:22:04;;;;;;;;;;;;;;;22.43;38.06;100837.88;5056151;28;19924;-77
2023/07/04 03:24:30;;;;;;;;;;;;;;;22.40;38.08;100841.25;5052911;28;19923;-77
2023/07/04 03:26:56;;;;;;;;;;;;;;;22.39;38.00;100835.00;5055164;28;19943;-77
2023/07/04 03:29:21;;;;;;;;;;;;;;;22.42;38.13;100839.00;5056207;28;20385;-77
2023/07/04 03:31:46;;;;;;;;;;;;;;;22.41;37.99;100835.47;5054635;28;20391;-77
2023/07/04 03:34:12;;;;;;;;;;;;;;;22.43;37.85;100843.34;5056544;28;20012;-77
2023/07/04 03:36:37;;;;;;;;;;;;;;;22.42;38.26;100834.34;5056944;28;20391;-77
2023/07/04 03:39:03;;;;;;;;;;;;;;;22.42;38.05;100834.34;5058080;28;19917;-76
2023/07/04 03:41:29;;;;;;;;;;;;;;;22.44;38.16;100836.75;5055397;28;19925;-77
2023/07/04 03:43:54;;;;;;;;;;;;;;;22.43;38.18;100835.94;5055827;28;19932;-77
2023/07/04 03:46:19;;;;;;;;;;;;;;;22.45;38.10;100839.19;5054812;28;20058;-77
2023/07/04 03:48:44;;;;;;;;;;;;;;;22.51;38.08;100843.31;5053789;28;20438;-77
2023/07/04 03:51:10;;;;;;;;;;;;;;;22.53;38.06;100841.06;5052552;28;20865;-77
2023/07/04 03:53:37;;;;;;;;;;;;;;;22.57;38.13;100852.13;5055170;28;20046;-77
2023/07/04 03:56:05;;;;;;;;;;;;;;;22.61;38.19;100842.16;5052429;28;20706;-77
2023/07/04 03:58:30;;;;;;;;;;;;;;;22.65;37.95;100848.59;5051910;28;19955;-77
2023/07/04 04:00:56;;;;;;;;;;;;;;;22.73;38.04;100846.94;5054559;28;20002;-77
2023/07/04 04:03:21;;;;;;;;;;;;;;;22.78;38.10;100849.50;5051744;28;19942;-77
2023/07/04 04:05:46;;;;;;;;;;;;;;;22.84;37.93;100849.03;5054888;28;19917;-77
2023/07/04 04:08:12;;;;;;;;;;;;;;;22.94;37.70;100850.56;5054475;28;19947;-77
2023/07/04 04:10:37;;;;;;;;;;;;;;;22.99;37.78;100852.34;5054315;28;20416;-77
2023/07/04 04:13:02;;;;;;;;;;;;;;;23.04;37.66;100844.75;5053282;28;20597;-77
2023/07/04 04:15:28;;;;;;;;;;;;;;;23.13;37.93;100842.75;5057813;28;19916;-77
2023/07/04 04:17:56;;;;;;;;;;;;;;;23.20;37.64;100848.53;5058873;28;19955;-77
2023/07/04 04:20:21;;;;;;;;;;;;;;;23.24;37.60;100847.84;5054968;28;19927;-77
2023/07/04 04:22:48;;;;;;;;;;;;;;;23.34;37.33;100855.66;5055246;28;20495;-77
2023/07/04 04:25:14;;;;;;;;;;;;;;;23.34;37.31;100858.41;5056234;28;19928;-77
2023/07/04 04:27:39;;;;;;;;;;;;;;;23.34;37.34;100864.69;5057889;28;19923;-77
2023/07/04 04:30:08;;;;;;;;;;;;;;;23.41;37.28;100866.91;5063075;28;19924;-78
2023/07/04 04:32:34;;;;;;;;;;;;;;;23.48;37.24;100869.91;5056443;28;19921;-77
2023/07/04 04:34:59;;;;;;;;;;;;;;;23.54;37.40;100871.31;5061063;28;20301;-77
2023/07/04 04:37:24;;;;;;;;;;;;;;;23.58;37.21;100868.75;5059886;28;20334;-77
2023/07/04 04:39:50;;;;;;;;;;;;;;;23.63;37.10;100874.00;5048035;28;19928;-77
2023/07/04 04:42:15;;;;;;;;;;;;;;;23.72;37.02;100878.28;5061385;28;19928;-78
2023/07/04 04:44:41;;;;;;;;;;;;;;;23.73;37.06;100888.09;5058863;28;19967;-78
2023/07/04 04:47:06;;;;;;;;;;;;;;;23.76;36.96;100892.09;5059648;28;20394;-77
2023/07/04 04:49:32;;;;;;;;;;;;;;;23.81;36.77;100894.63;5057633;28;20014;-77
2023/07/04 04:51:57;;;;;;;;;;;;;;;23.84;36.54;100893.16;5057876;28;19932;-78
2023/07/04 04:54:23;;;;;;;;;;;;;;;23.83;36.42;100899.78;5057747;28;20003;-80
2023/07/04 04:56:48;;;;;;;;;;;;;;;23.83;36.49;100905.25;5061808;28;19916;-81
2023/07/04 04:59:14;;;;;;;;;;;;;;;23.90;36.57;100905.53;5059842;28;19924;-80
2023/07/04 05:01:39;;;;;;;;;;;;;;;23.96;36.31;100902.25;5058571;28;19948;-81
2023/07/04 05:04:04;;;;;;;;;;;;;;;24.02;36.18;100905.56;5059114;28;19932;-80
2023/07/04 05:06:30;;;;;;;;;;;;;;;24.18;36.08;100914.78;5062826;28;20451;-80
2023/07/04 05:08:55;;;;;;;;;;;;;;;24.23;35.99;100913.75;5058809;28;20015;-80
2023/07/04 05:11:21;;;;;;;;;;;;;;;24.27;36.16;100917.44;5060263;28;19916;-80
2023/07/04 05:13:47;;;;;;;;;;;;;;;24.37;35.87;100928.81;5062840;28;20161;-80
2023/07/04 05:16:15;;;;;;;;;;;;;;;24.46;35.76;100926.00;5056685;28;20297;-78
2023/07/04 05:18:42;;;;;;;;;;;;;;;24.51;35.64;100927.72;5058048;28;19917;-79
2023/07/04 05:21:07;;;;;;;;;;;;;;;24.58;35.64;100933.44;5059979;28;19966;-81
2023/07/04 05:23:34;;;;;;;;;;;;;;;24.57;35.77;100934.56;5057259;28;19971;-81
2023/07/04 05:26:00;;;;;;;;;;;;;;;24.66;35.74;100936.09;5056069;28;20365;-81
2023/07/04 05:28:25;;;;;;;;;;;;;;;24.81;35.37;100934.66;5060520;28;19921;-82
2023/07/04 05:30:57;;;;;;;;;;;;;;;24.88;35.22;100934.88;5058072;28;19970;-81
2023/07/04 05:33:23;;;;;;;;;;;;;;;24.89;35.38;100939.22;5061367;28;19924;-79
2023/07/04 05:35:48;;;;;;;;;;;;;;;24.97;35.58;100943.81;5055541;28;19959;-79
2023/07/04 05:38:13;;;;;;;;;;;;;;;25.10;35.28;100943.84;5058805;28;20383;-79
2023/07/04 05:40:39;;;;;;;;;;;;;;;25.25;35.14;100941.25;5059588;28;20297;-79
2023/07/04 05:43:05;;;;;;;;;;;;;;;25.39;34.93;100946.38;5061591;28;20410;-79
2023/07/04 05:45:30;;;;;;;;;;;;;;;25.40;34.79;100947.19;5060148;28;19916;-79
2023/07/04 05:47:55;;;;;;;;;;;;;;;25.39;34.74;100962.03;5057502;28;20388;-79
2023/07/04 05:50:21;;;;;;;;;;;;;;;25.40;34.68;100953.47;5055181;28;19921;-78
2023/07/04 05:52:46;;;;;;;;;;;;;;;25.46;34.81;100957.56;5055283;28;19916;-79
2023/07/04 05:55:11;;;;;;;;;;;;;;;25.51;34.70;100964.81;5057437;28;19925;-82
2023/07/04 05:57:37;;;;;;;;;;;;;;;25.63;34.79;100963.97;5059048;28;20299;-81
2023/07/04 06:00:05;;;;;;;;;;;;;;;25.77;34.79;100975.44;5053857;28;19921;-81
2023/07/04 06:02:31;;;;;;;;;;;;;;;25.87;34.53;100977.72;5052218;28;20312;-80
2023/07/04 06:04:57;;;;;;;;;;;;;;;25.90;34.31;100974.28;5051882;28;20402;-80
2023/07/04 06:07:22;;;;;;;;;;;;;;;25.84;34.15;100981.91;5055744;28;20037;-79
2023/07/04 06:09:47;;;;;;;;;;;;;;;25.82;34.29;100983.41;5056289;28;19920;-79
2023/07/04 06:12:13;;;;;;;;;;;;;;;25.72;34.13;100976.47;5058947;28;19927;-82
2023/07/04 06:14:38;;;;;;;;;;;;;;;25.66;33.72;100971.50;5053802;28;19931;-81
2023/07/04 06:17:04;;;;;;;;;;;;;;;25.61;34.14;100975.28;5049783;28;20146;-80
2023/07/04 06:19:30;;;;;;;;;;;;;;;25.59;34.28;100977.59;5055393;28;19920;-79
2023/07/04 06:21:55;;;;;;;;;;;;;;;25.63;34.01;100983.19;5050891;28;19968;-78
2023/07/04 06:24:21;;;;;;;;;;;;;;;25.58;33.53;100996.00;5052769;28;20303;-81
2023/07/04 06:26:46;;;;;;;;;;;;;;;25.59;33.38;101005.81;5055174;28;19925;-79
2023/07/04 06:29:12;;;;;;;;;;;;;;;25.58;33.24;101008.91;5053127;28;19924;-78
2023/07/04 06:31:41;;;;;;;;;;;;;;;25.65;33.43;101009.13;5052777;28;19952;-80
2023/07/04 06:34:07;;;;;;;;;;;;;;;25.81;33.12;101017.50;5047725;28;19920;-81
2023/07/04 06:36:32;;;;;;;;;;;;;;;25.87;32.85;101016.94;5048107;28;19950;-79
2023/07/04 06:39:01;;;;;;;;;;;;;;;25.75;32.71;101035.34;5048795;28;19917;-78
2023/07/04 06:41:26;;;;;;;;;;;;;;;25.61;32.99;101019.19;5055259;28;19992;-80
2023/07/04 06:43:51;;;;;;;;;;;;;;;25.64;32.95;101034.16;5049094;28;19920;-81
2023/07/04 06:46:18;;;;;;;;;;;;;;;25.66;32.82;101045.59;5055235;28;19920;-79
2023/07/04 06:48:46;;;;;;;;;;;;;;;25.60;32.96;101034.84;5054027;28;19927;-79
2023/07/04 06:51:15;;;;;;;;;;;;;;;25.59;33.08;101032.47;5049553;28;19931;-80
2023/07/04 06:53:41;;;;;;;;;;;;;;;25.74;32.99;101036.50;5053844;28;19920;-79
2023/07/04 06:56:10;;;;;;;;;;;;;;;25.84;32.99;101036.03;5055544;28;19926;-79
2023/07/04 06:58:37;;;;;;;;;;;;;;;25.95;33.07;101044.59;5051633;28;20387;-80
2023/07/04 07:01:03;;;;;;;;;;;;;;;25.95;33.08;101050.09;5053002;28;20557;-80
2023/07/04 07:03:30;;;;;;;;;;;;;;;25.96;33.14;101052.50;5050761;28;19928;-79
2023/07/04 07:05:56;;;;;;;;;;;;;;;25.85;32.92;101067.81;5051142;28;19972;-78
2023/07/04 07:08:21;;;;;;;;;;;;;;;25.80;33.01;101070.78;5049951;28;20062;-79
2023/07/04 07:10:57;;;;;;;;;;;;;;;25.79;33.03;101074.69;5051071;28;19920;-79
2023/07/04 07:13:23;;;;;;;;;;;;;;;25.83;32.87;101081.88;5052646;28;19970;-79
2023/07/04 07:15:48;;;;;;;;;;;;;;;25.79;32.15;101075.47;5047653;28;20770;-81
2023/07/04 07:18:13;;;;;;;;;;;;;;;25.76;32.11;101091.84;5048823;28;19936;-81
2023/07/04 07:20:39;;;;;;;;;;;;;;;25.65;31.96;101068.69;5052912;28;19925;-81
2023/07/04 07:23:04;;;;;;;;;;;;;;;25.65;32.27;101083.22;5047423;28;20039;-81
2023/07/04 07:25:29;;;;;;;;;;;;;;;25.69;32.47;101086.13;5056672;28;20647;-81
2023/07/04 07:27:55;;;;;;;;;;;;;;;25.80;31.87;101082.56;5055471;28;20002;-78
2023/07/04 07:30:20;;;;;;;;;;;;;;;25.90;32.11;101075.84;5060093;28;19923;-79
2023/07/04 07:32:45;;;;;;;;;;;;;;;26.03;32.07;101091.16;5057695;28;20018;-79
2023/07/04 07:35:10;;;;;;;;;;;;;;;26.18;31.72;101086.91;5056251;28;20560;-79
2023/07/04 07:37:36;;;;;;;;;;;;;;;26.26;31.65;101076.94;5052682;28;20807;-79
2023/07/04 07:40:03;;;;;;;;;;;;;;;26.37;31.92;101072.59;5048410;28;20160;-80
2023/07/04 07:42:30;;;;;;;;;;;;;;;26.50;31.31;101076.91;5049131;28;19920;-80
2023/07/04 07:44:55;;;;;;;;;;;;;;;26.54;31.56;101082.50;5052704;28;20015;-80
2023/07/04 07:47:20;;;;;;;;;;;;;;;26.54;31.59;101086.06;5050242;28;19973;-80
2023/07/04 07:49:46;;;;;;;;;;;;;;;26.67;31.64;101076.63;5048558;28;19921;-79
2023/07/04 07:52:11;;;;;;;;;;;;;;;26.76;31.49;101079.25;5054202;28;20038;-80
2023/07/04 07:54:36;;;;;;;;;;;;;;;26.84;31.29;101077.50;5056649;28;19924;-82
2023/07/04 07:57:02;;;;;;;;;;;;;;;26.84;30.95;101074.75;5056602;28;19974;-82
2023/07/04 07:59:27;;;;;;;;;;;;;;;26.79;31.11;101081.28;5056406;28;19920;-81
2023/07/04 08:01:52;;;;;;;;;;;;;;;26.86;31.25;101080.69;5055589;28;20404;-82
2023/07/04 08:04:18;;;;;;;;;;;;;;;26.98;31.23;101099.88;5058062;28;19916;-91
2023/07/04 08:06:44;;;;;;;;;;;;;;;27.05;30.84;101097.34;5056757;28;20442;-87
2023/07/04 08:09:11;;;;;;;;;;;;;;;27.06;30.55;101105.25;5058597;28;19929;-87
2023/07/04 08:11:37;;;;;;;;;;;;;;;27.08;30.76;101096.66;5063674;28;19951;-89
2023/07/04 08:14:02;;;;;;;;;;;;;;;27.00;30.50;101106.66;5061104;28;19920;-91
2023/07/04 08:16:29;;;;;;;;;;;;;;;26.88;30.66;101097.63;5071242;28;19986;-89
2023/07/04 08:18:55;;;;;;;;;;;;;;;26.86;31.08;101095.22;5073741;28;19916;-91
2023/07/04 08:21:20;;;;;;;;;;;;;;;27.02;30.92;101109.06;5065657;28;20038;-91
2023/07/04 08:23:46;;;;;;;;;;;;;;;27.06;30.96;101126.44;5057461;28;20438;-87
2023/07/04 08:26:15;;;;;;;;;;;;;;;27.09;30.79;101103.75;5059230;28;19923;-89
2023/07/04 08:28:40;;;;;;;;;;;;;;;27.12;30.60;101119.56;5058029;28;19943;-87
2023/07/04 08:31:06;;;;;;;;;;;;;;;27.15;30.63;101112.56;5058429;28;19921;-90
2023/07/04 08:33:32;;;;;;;;;;;;;;;27.20;30.60;101104.84;5057101;28;19998;-88
2023/07/04 08:35:58;;;;;;;;;;;;;;;27.44;30.61;101116.84;5060037;28;20324;-94
2023/07/04 08:38:24;;;;;;;;;;;;;;;27.44;29.82;101119.59;5064154;28;19924;-90
2023/07/04 08:40:49;;;;;;;;;;;;;;;27.43;29.84;101123.50;5061685;28;19924;-88
2023/07/04 08:43:19;;;;;;;;;;;;;;;27.39;29.85;101128.94;5063260;28;20418;-89
2023/07/04 08:45:44;;;;;;;;;;;;;;;27.38;30.30;101121.84;5065373;28;20296;-88
2023/07/04 08:48:16;;;;;;;;;;;;;;;27.52;30.16;101121.41;5062112;28;19927;-88
2023/07/04 08:50:43;;;;;;;;;;;;;;;27.59;30.02;101133.38;5058578;28;20005;-85
2023/07/04 08:53:15;;;;;;;;;;;;;;;27.65;29.79;101137.53;5055766;28;19921;-87
2023/07/04 08:55:53;;;;;;;;;;;;;;;27.63;29.69;101133.50;5065096;28;19928;-87
2023/07/04 08:58:19;;;;;;;;;;;;;;;27.65;29.46;101139.47;5053781;28;19931;-90
2023/07/04 09:00:45;;;;;;;;;;;;;;;27.71;29.48;101143.56;5060349;28;19928;-86
2023/07/04 09:03:22;;;;;;;;;;;;;;;27.89;29.61;101144.00;5062574;28;20307;-89
2023/07/04 09:05:50;;;;;;;;;;;;;;;28.08;29.54;101155.09;5060645;28;19924;-85
2023/07/04 09:08:36;;;;;;;;;;;;;;;28.11;29.14;101140.59;5062764;28;20029;-87
2023/07/04 09:11:03;;;;;;;;;;;;;;;28.10;29.45;101143.72;5029750;28;19916;-86
2023/07/04 09:13:35;;;;;;;;;;;;;;;28.25;29.47;101146.50;5061264;28;19927;-82
2023/07/04 09:16:22;;;;;;;;;;;;;;;28.42;29.35;101148.06;5057103;28;20384;-87
2023/07/04 09:18:52;;;;;;;;;;;;;;;28.63;29.10;101131.19;5060052;28;19921;-85
2023/07/04 09:21:19;;;;;;;;;;;;;;;28.62;28.90;101140.63;5056675;28;19947;-83
2023/07/04 09:23:45;;;;;;;;;;;;;;;28.46;28.52;101148.13;5056384;28;20651;-88
2023/07/04 09:26:15;;;;;;;;;;;;;;;28.33;28.50;101143.88;5061670;28;19939;-82
2023/07/04 09:28:45;;;;;;;;;;;;;;;28.42;28.84;101139.00;5057169;28;19960;-83
2023/07/04 09:31:21;;;;;;;;;;;;;;;28.68;28.91;101132.84;5060549;28;19920;-84
2023/07/04 09:33:48;;;;;;;;;;;;;;;28.91;28.43;101132.97;5060334;28;19928;-83
2023/07/04 09:36:15;;;;;;;;;;;;;;;29.09;28.28;101128.63;5057765;28;19924;-85
2023/07/04 09:38:53;;;;;;;;;;;;;;;29.24;28.72;101124.16;5060315;28;19927;-84
2023/07/04 09:41:19;;;;;;;;;;;;;;;29.41;27.71;101118.94;5060106;28;19959;-86
2023/07/04 09:43:44;;;;;;;;;;;;;;;29.37;27.45;101129.13;5066274;28;19955;-88
2023/07/04 09:46:22;;;;;;;;;;;;;;;29.29;27.73;101118.34;5054507;28;19931;-84
2023/07/04 09:48:47;;;;;;;;;;;;;;;29.28;27.52;101120.31;5058066;28;19921;-87
2023/07/04 09:51:22;;;;;;;;;;;;;;;29.23;27.55;101137.16;5060327;28;20351;-83
2023/07/04 09:53:47;;;;;;;;;;;;;;;29.15;27.67;101136.22;5051642;28;20015;-85
2023/07/04 09:56:23;;;;;;;;;;;;;;;29.16;27.87;101129.53;5059239;28;19921;-85
2023/07/04 09:59:07;;;;;;;;;;;;;;;29.30;28.02;101139.25;5060949;28;19920;-86
2023/07/04 10:01:33;;;;;;;;;;;;;;;29.31;27.21;101127.06;5059177;28;20023;-89
2023/07/04 10:04:04;;;;;;;;;;;;;;;29.41;28.01;101137.47;5065303;28;19916;-85
2023/07/04 10:06:32;;;;;;;;;;;;;;;29.50;27.48;101135.31;5060548;28;20192;-85
2023/07/04 10:08:57;;;;;;;;;;;;;;;29.46;27.24;101131.72;5063269;28;20650;-90
2023/07/04 10:11:29;;;;;;;;;;;;;;;29.53;26.88;101133.78;5062253;28;19916;-86
2023/07/04 10:13:59;;;;;;;;;;;;;;;29.67;27.20;101136.81;5059733;28;19922;-84
2023/07/04 10:16:24;;;;;;;;;;;;;;;29.77;25.97;101139.72;5063067;28;19941;-89
2023/07/04 10:18:50;;;;;;;;;;;;;;;29.82;26.08;101137.84;5055953;28;19920;-83
2023/07/04 10:21:15;;;;;;;;;;;;;;;29.79;25.80;101133.81;5053635;28;19935;-84
2023/07/04 10:23:41;;;;;;;;;;;;;;;29.85;26.23;101140.66;5053427;28;19924;-86
2023/07/04 10:26:08;;;;;;;;;;;;;;;29.92;26.08;101128.91;5056700;28;20007;-85
2023/07/04 10:28:33;;;;;;;;;;;;;;;30.10;26.07;101137.50;5053356;28;19963;-89
2023/07/04 10:31:06;;;;;;;;;;;;;;;30.07;26.04;101133.53;5050006;28;20015;-87
2023/07/04 10:33:41;;;;;;;;;;;;;;;30.03;25.87;101135.41;5049831;28;19930;-86
2023/07/04 10:36:09;;;;;;;;;;;;;;;30.12;25.85;101132.41;5058670;28;19963;-87
2023/07/04 10:38:35;;;;;;;;;;;;;;;30.32;25.71;101131.13;5057144;28;19927;-86
2023/07/04 10:41:07;;;;;;;;;;;;;;;30.46;25.66;101133.31;5057835;28;19924;-86
2023/07/04 10:43:35;;;;;;;;;;;;;;;30.51;25.51;101135.72;5059870;28;19927;-87
2023/07/04 10:46:04;;;;;;;;;;;;;;;30.38;25.43;101130.44;5061241;28;19920;-89
2023/07/04 10:48:33;;;;;;;;;;;;;;;30.32;25.58;101140.22;5058813;28;19920;-87
2023/07/04 10:51:03;;;;;;;;;;;;;;;30.23;25.48;101153.53;5055201;28;19921;-83
2023/07/04 10:53:28;;;;;;;;;;;;;;;30.08;25.14;101137.88;5052843;28;19920;-82
2023/07/04 10:55:57;;;;;;;;;;;;;;;30.10;25.53;101135.56;5056991;28;19920;-82
2023/07/04 10:58:24;;;;;;;;;;;;;;;30.08;25.30;101143.41;5057096;28;19921;-84
2023/07/04 11:00:58;;;;;;;;;;;;;;;30.21;25.22;101150.34;5054507;28;19924;-85
2023/07/04 11:03:27;;;;;;;;;;;;;;;30.15;25.17;101148.25;5056116;28;19920;-87
2023/07/04 11:05:54;;;;;;;;;;;;;;;30.14;25.25;101133.63;5052816;28;19921;-91
2023/07/04 11:08:22;;;;;;;;;;;;;;;30.21;25.84;101133.75;5052866;28;19920;-86
2023/07/04 11:10:50;;;;;;;;;;;;;;;30.27;25.74;101146.06;5057843;28;19928;-83
2023/07/04 11:13:16;;;;;;;;;;;;;;;30.41;25.43;101136.41;5050748;28;19924;-83
2023/07/04 11:15:42;;;;;;;;;;;;;;;30.49;25.72;101141.63;5051367;28;20440;-88
2023/07/04 11:18:13;;;;;;;;;;;;;;;30.61;25.41;101143.38;5051806;28;19932;-88
2023/07/04 11:20:40;;;;;;;;;;;;;;;30.67;25.29;101141.91;5049493;28;19936;-85
2023/07/04 11:23:19;;;;;;;;;;;;;;;30.59;24.84;101145.75;5055295;28;19921;-85
2023/07/04 11:25:44;;;;;;;;;;;;;;;30.31;25.06;101140.59;5047576;28;19979;-86
2023/07/04 11:28:41;;;;;;;;;;;;;;;30.17;25.05;101146.72;5053087;28;19996;-86
2023/07/04 11:31:21;;;;;;;;;;;;;;;30.14;25.53;101146.66;5053954;28;19977;-87
2023/07/04 11:33:49;;;;;;;;;;;;;;;30.19;25.05;101146.34;5052047;28;19928;-84
2023/07/04 11:36:25;;;;;;;;;;;;;;;30.33;25.71;101136.28;5057426;28;19920;-87
2023/07/04 11:38:52;;;;;;;;;;;;;;;30.67;25.61;101128.88;5054322;28;20438;-83
2023/07/04 11:41:25;;;;;;;;;;;;;;;30.83;24.25;101142.50;5053084;28;19931;-84
2023/07/04 11:43:51;;;;;;;;;;;;;;;31.02;25.11;101132.47;5047880;28;20511;-83
2023/07/04 11:46:24;;;;;;;;;;;;;;;31.00;24.70;101137.56;5055828;28;19926;-85
2023/07/04 11:48:50;;;;;;;;;;;;;;;31.02;25.12;101133.25;5047388;28;20581;-84
2023/07/04 11:51:18;;;;;;;;;;;;;;;31.07;24.51;101132.94;5053085;28;19924;-85
2023/07/04 11:53:46;;;;;;;;;;;;;;;31.12;24.62;101142.88;5057858;28;20676;-84
2023/07/04 11:56:14;;;;;;;;;;;;;;;31.08;24.56;101134.53;5066011;28;19916;-87
2023/07/04 11:58:40;;;;;;;;;;;;;;;31.14;24.86;101133.00;5059231;28;19924;-85
2023/07/04 12:01:06;;;;;;;;;;;;;;;31.00;24.01;101134.81;5063952;28;20481;-85
2023/07/04 12:03:35;;;;;;;;;;;;;;;31.11;24.24;101146.81;5054215;28;19927;-87
2023/07/04 12:06:00;;;;;;;;;;;;;;;31.23;24.00;101133.50;5054964;28;20432;-87
2023/07/04 12:08:26;;;;;;;;;;;;;;;31.36;23.83;101144.31;5056216;28;19981;-83
2023/07/04 12:10:56;;;;;;;;;;;;;;;31.41;23.65;101149.50;5065900;28;20308;-88
2023/07/04 12:13:21;;;;;;;;;;;;;;;31.16;23.73;101138.16;5056373;28;19920;-83
2023/07/04 12:15:51;;;;;;;;;;;;;;;31.05;23.85;101154.63;5051307;28;19943;-84
2023/07/04 12:18:23;;;;;;;;;;;;;;;30.82;23.50;101160.28;5054181;28;20664;-86
2023/07/04 12:20:48;;;;;;;;;;;;;;;30.62;23.65;101145.00;5055432;28;20429;-83
2023/07/04 12:23:15;;;;;;;;;;;;;;;30.51;23.80;101149.56;5055609;28;19924;-88
2023/07/04 12:25:41;;;;;;;;;;;;;;;30.43;23.99;101145.13;5060063;28;20002;-86
2023/07/04 12:28:09;;;;;;;;;;;;;;;30.42;24.32;101146.28;5057607;28;19931;-84
2023/07/04 12:30:37;;;;;;;;;;;;;;;30.44;24.13;101155.00;5055765;28;20011;-83
2023/07/04 12:33:02;;;;;;;;;;;;;;;30.44;24.43;101163.28;5056971;28;20517;-83
2023/07/04 12:35:32;;;;;;;;;;;;;;;30.44;24.32;101171.59;5052664;28;19927;-83